Time;durP1;ratioP1;P1;durP2;ratioP2;P2;SDS_P1;SDS_P2;PMS_P1;PMS_P2;Temp;Humidity;BMP_temperature;BMP_pressure;BME280_temperature;BME280_humidity;BME280_pressure;Samples;Min_cycle;Max_cycle;Signal;HPM_P1;HPM_P2
2021/10/06 00:01:14;;;;;;;21.93;11.70;;;;;;;5.08;84.60;101012.66;1729357;81;20901;-77
2021/10/06 00:03:41;;;;;;;25.82;12.75;;;;;;;5.09;84.74;101009.41;1724945;81;21095;-76
2021/10/06 00:06:08;;;;;;;30.65;12.98;;;;;;;5.09;85.02;101014.31;1744911;81;20973;-77
2021/10/06 00:08:35;;;;;;;24.77;12.88;;;;;;;5.08;85.05;101016.75;1732927;81;21482;-76
2021/10/06 00:11:03;;;;;;;27.82;12.50;;;;;;;5.05;85.00;101016.41;1735404;82;21000;-78
2021/10/06 00:13:30;;;;;;;28.25;13.80;;;;;;;5.05;85.00;101016.41;1724065;81;20945;-78
2021/10/06 00:15:57;;;;;;;27.40;13.40;;;;;;;4.96;85.55;101022.77;1728255;81;21006;-78
2021/10/06 00:18:24;;;;;;;28.87;13.08;;;;;;;4.96;85.55;101022.77;1725857;81;21063;-75
2021/10/06 00:20:50;;;;;;;33.28;14.50;;;;;;;4.96;86.03;101022.77;1728637;81;22191;-75
2021/10/06 00:23:17;;;;;;;34.27;16.02;;;;;;;4.96;86.03;101022.77;1715750;81;21189;-74
2021/10/06 00:25:43;;;;;;;35.83;16.62;;;;;;;4.96;85.89;101020.88;1728729;81;20950;-74
2021/10/06 00:28:10;;;;;;;35.28;17.42;;;;;;;4.94;86.02;101023.55;1738000;81;21037;-75
2021/10/06 00:30:37;;;;;;;39.10;17.45;;;;;;;4.94;86.27;101023.55;1717113;81;20979;-77
2021/10/06 00:33:03;;;;;;;29.35;14.75;;;;;;;4.94;86.27;101023.55;1723457;81;21497;-77
2021/10/06 00:35:30;;;;;;;28.85;13.98;;;;;;;4.92;86.64;101012.91;1730973;81;20988;-77
2021/10/06 00:37:56;;;;;;;31.30;15.10;;;;;;;4.90;86.98;101016.41;1740775;81;20878;-73
2021/10/06 00:40:23;;;;;;;40.00;15.40;;;;;;;4.90;87.32;101012.85;1721099;81;21008;-75
2021/10/06 00:42:50;;;;;;;31.33;14.30;;;;;;;4.90;87.32;101012.85;1737314;82;21112;-74
2021/10/06 00:45:16;;;;;;;32.73;16.30;;;;;;;4.88;87.27;101010.37;1722768;81;21524;-72
2021/10/06 00:47:44;;;;;;;34.38;15.85;;;;;;;4.84;87.35;101002.41;1738163;82;21032;-73
2021/10/06 00:50:10;;;;;;;35.50;15.53;;;;;;;4.83;87.47;101007.55;1736092;81;21012;-75
2021/10/06 00:52:37;;;;;;;27.87;14.58;;;;;;;4.80;87.56;101008.03;1728684;82;20984;-76
2021/10/06 00:55:05;;;;;;;30.65;15.00;;;;;;;4.77;87.78;101014.50;1730120;81;21051;-75
2021/10/06 00:57:32;;;;;;;28.73;14.30;;;;;;;4.75;87.76;101013.91;1722645;81;21801;-74
2021/10/06 00:59:59;;;;;;;25.55;13.70;;;;;;;4.70;87.98;101011.91;1733224;82;21064;-76
2021/10/06 01:02:26;;;;;;;28.42;13.43;;;;;;;4.65;88.14;101005.84;1733502;81;21039;-74
2021/10/06 01:04:53;;;;;;;24.02;12.78;;;;;;;4.63;88.64;101016.13;1719757;81;21053;-74
2021/10/06 01:07:20;;;;;;;25.57;12.68;;;;;;;4.61;88.62;101009.30;1718747;82;21072;-76
2021/10/06 01:09:46;;;;;;;21.57;12.50;;;;;;;4.60;88.81;101018.53;1733009;81;22158;-74
2021/10/06 01:12:13;;;;;;;29.70;13.48;;;;;;;4.59;89.17;101018.24;1740079;81;20984;-75
2021/10/06 01:14:39;;;;;;;26.87;13.30;;;;;;;4.59;89.37;101017.70;1731609;81;21148;-76
2021/10/06 01:17:06;;;;;;;26.57;12.50;;;;;;;4.58;89.32;101009.78;1728693;81;21088;-74
2021/10/06 01:19:33;;;;;;;21.25;10.78;;;;;;;4.56;89.54;101012.75;1732293;82;20941;-74
2021/10/06 01:22:00;;;;;;;26.42;12.88;;;;;;;4.54;89.68;101018.96;1730239;81;21492;-74
2021/10/06 01:24:27;;;;;;;23.05;11.70;;;;;;;4.52;89.99;101014.30;1727831;81;21029;-73
2021/10/06 01:26:53;;;;;;;23.50;12.78;;;;;;;4.52;89.99;101014.30;1716331;81;21749;-73
2021/10/06 01:29:20;;;;;;;24.70;12.25;;;;;;;4.50;89.82;101015.06;1736659;81;20969;-73
2021/10/06 01:31:48;;;;;;;28.47;13.18;;;;;;;4.44;89.82;101024.72;1740381;82;20917;-73
2021/10/06 01:34:19;;;;;;;27.52;13.58;;;;;;;4.44;89.82;101024.72;1732561;81;21180;-73
2021/10/06 01:36:48;;;;;;;26.35;12.85;;;;;;;4.39;90.40;101018.63;1733462;81;21006;-73
2021/10/06 01:39:15;;;;;;;23.83;12.98;;;;;;;4.37;90.70;101020.77;1721338;81;20986;-73
2021/10/06 01:41:43;;;;;;;24.85;11.83;;;;;;;4.38;91.20;101025.67;1694860;82;20972;-74
2021/10/06 01:44:14;;;;;;;24.43;12.33;;;;;;;4.32;91.07;101023.37;1728263;81;21026;-72
2021/10/06 01:46:42;;;;;;;19.60;10.93;;;;;;;4.33;91.26;101026.92;1729936;81;21150;-73
2021/10/06 01:49:09;;;;;;;23.22;12.82;;;;;;;4.31;91.31;101029.87;1735583;81;21033;-74
2021/10/06 01:51:36;;;;;;;22.80;12.58;;;;;;;4.31;92.11;101020.36;1730407;81;21017;-74
2021/10/06 01:54:04;;;;;;;32.35;13.62;;;;;;;4.32;92.13;101022.02;1726534;81;20982;-74
2021/10/06 01:56:32;;;;;;;23.00;12.07;;;;;;;4.30;92.20;101016.81;1731554;81;21017;-74
2021/10/06 01:59:01;;;;;;;24.43;11.60;;;;;;;4.31;92.13;101021.72;1727565;81;21141;-74
2021/10/06 02:01:28;;;;;;;22.67;12.28;;;;;;;4.30;91.98;101025.50;1730880;81;20945;-74
2021/10/06 02:03:54;;;;;;;24.63;11.88;;;;;;;4.25;91.78;101023.50;1741733;81;20985;-75
2021/10/06 02:06:22;;;;;;;22.55;11.33;;;;;;;4.22;91.82;101025.86;1748600;80;21559;-74
2021/10/06 02:08:49;;;;;;;22.22;12.50;;;;;;;4.20;92.11;101023.91;1738012;81;21437;-75
2021/10/06 02:11:16;;;;;;;21.30;11.18;;;;;;;4.18;92.16;101023.33;1705518;82;21530;-72
2021/10/06 02:13:42;;;;;;;18.75;10.72;;;;;;;4.15;92.13;101034.67;1729723;81;21080;-72
2021/10/06 02:16:09;;;;;;;22.48;11.18;;;;;;;4.12;92.32;101041.94;1732576;81;20974;-72
2021/10/06 02:18:35;;;;;;;24.50;11.53;;;;;;;4.11;92.63;101038.92;1738878;82;20946;-74
2021/10/06 02:21:03;;;;;;;24.47;12.28;;;;;;;4.09;92.81;101043.23;1719696;81;20953;-72
2021/10/06 02:23:30;;;;;;;33.05;14.43;;;;;;;4.08;93.17;101038.87;1741999;81;21151;-73
2021/10/06 02:25:56;;;;;;;30.12;12.90;;;;;;;4.11;93.85;101045.19;1736462;81;21567;-71
2021/10/06 02:28:23;;;;;;;18.40;10.70;;;;;;;4.15;94.25;101041.47;1732564;82;21017;-72
2021/10/06 02:30:50;;;;;;;21.37;9.95;;;;;;;4.19;94.21;101050.80;1738207;81;21004;-73
2021/10/06 02:33:17;;;;;;;19.02;10.00;;;;;;;4.22;94.24;101047.08;1733212;81;21519;-73
2021/10/06 02:35:43;;;;;;;21.82;11.60;;;;;;;4.23;94.16;101047.91;1725751;82;21090;-73
2021/10/06 02:38:10;;;;;;;25.25;10.53;;;;;;;4.24;94.26;101046.31;1730872;81;21587;-73
2021/10/06 02:40:37;;;;;;;20.52;10.25;;;;;;;4.24;94.24;101042.77;1737395;81;20942;-77
2021/10/06 02:43:04;;;;;;;24.23;11.22;;;;;;;4.24;94.22;101045.48;1733002;81;21484;-76
2021/10/06 02:45:32;;;;;;;18.20;11.28;;;;;;;4.22;94.11;101046.25;1734811;81;21500;-77
2021/10/06 02:47:59;;;;;;;20.50;12.28;;;;;;;4.19;93.86;101050.27;1740149;81;22173;-76
2021/10/06 02:50:26;;;;;;;22.60;11.40;;;;;;;4.15;93.93;101055.05;1731366;81;20929;-74
2021/10/06 02:52:53;;;;;;;22.25;11.30;;;;;;;4.13;93.92;101059.91;1735566;81;21006;-75
2021/10/06 02:55:19;;;;;;;18.90;11.35;;;;;;;4.11;94.03;101064.74;1733963;82;21429;-74
2021/10/06 02:57:46;;;;;;;21.68;10.63;;;;;;;4.07;93.93;101071.72;1736619;82;20893;-75
2021/10/06 03:00:14;;;;;;;20.25;11.30;;;;;;;4.03;94.43;101078.18;1724156;81;22121;-76
2021/10/06 03:02:41;;;;;;;19.32;10.95;;;;;;;4.02;94.75;101078.42;1725816;81;20992;-75
2021/10/06 03:05:10;;;;;;;25.95;11.73;;;;;;;4.00;94.81;101077.83;1715029;81;21060;-75
2021/10/06 03:07:37;;;;;;;21.02;11.15;;;;;;;3.97;95.08;101079.12;1718503;82;21046;-76
2021/10/06 03:10:06;;;;;;;20.88;11.43;;;;;;;3.98;95.47;101082.96;1727726;81;21477;-77
2021/10/06 03:12:34;;;;;;;21.45;11.55;;;;;;;4.00;95.92;101080.02;1715391;81;21958;-77
2021/10/06 03:15:01;;;;;;;24.92;11.78;;;;;;;4.02;96.08;101082.50;1700505;83;21544;-76
2021/10/06 03:17:27;;;;;;;22.98;11.63;;;;;;;4.02;95.96;101083.32;1709404;82;21521;-77
2021/10/06 03:19:54;;;;;;;22.32;10.70;;;;;;;4.03;95.93;101084.15;1728209;81;21016;-75
2021/10/06 03:22:21;;;;;;;18.73;10.70;;;;;;;4.01;96.19;101087.10;1727604;81;21084;-76
2021/10/06 03:24:48;;;;;;;25.72;12.45;;;;;;;3.99;96.38;101089.22;1731583;82;21753;-76
2021/10/06 03:27:16;;;;;;;26.17;11.45;;;;;;;4.00;96.50;101092.23;1744922;81;20889;-76
2021/10/06 03:29:43;;;;;;;26.60;12.03;;;;;;;3.98;96.46;101089.75;1731044;81;21565;-76
2021/10/06 03:32:11;;;;;;;23.85;11.93;;;;;;;3.97;96.34;101094.89;1733880;81;21057;-74
2021/10/06 03:34:37;;;;;;;24.20;11.60;;;;;;;3.94;96.18;101096.72;1704339;81;21084;-74
2021/10/06 03:37:04;;;;;;;19.00;11.15;;;;;;;3.90;96.16;101098.25;1713827;81;21138;-73
2021/10/06 03:39:31;;;;;;;21.68;11.90;;;;;;;3.86;96.40;101100.31;1734764;81;20941;-73
2021/10/06 03:41:58;;;;;;;20.65;11.65;;;;;;;3.85;97.04;101100.02;1721350;81;21496;-76
2021/10/06 03:44:24;;;;;;;24.82;11.30;;;;;;;3.84;97.18;101105.15;1734792;81;21076;-76
2021/10/06 03:46:51;;;;;;;22.95;11.90;;;;;;;3.84;97.44;101102.43;1749766;81;20902;-75
2021/10/06 03:49:17;;;;;;;22.67;12.13;;;;;;;3.83;97.67;101105.67;1739316;81;22144;-76
2021/10/06 03:51:44;;;;;;;23.77;11.50;;;;;;;3.83;97.75;101100.77;1738106;81;20934;-76
2021/10/06 03:54:11;;;;;;;21.33;11.60;;;;;;;3.82;98.00;101101.30;1734986;81;21052;-75
2021/10/06 03:56:37;;;;;;;23.60;11.48;;;;;;;3.81;98.02;101099.65;1722869;81;21246;-76
2021/10/06 03:59:03;;;;;;;20.43;12.03;;;;;;;3.77;97.94;101101.17;1744605;81;21477;-75
2021/10/06 04:01:31;;;;;;;22.30;11.73;;;;;;;3.77;98.19;101098.98;1729270;82;21138;-77
2021/10/06 04:03:58;;;;;;;19.87;10.85;;;;;;;3.75;98.33;101097.86;1729739;82;20926;-79
2021/10/06 04:06:25;;;;;;;20.70;10.28;;;;;;;3.76;98.93;101104.95;1721896;81;20946;-83
2021/10/06 04:08:51;;;;;;;21.68;11.28;;;;;;;3.78;99.12;101105.55;1725026;81;21008;-78
2021/10/06 04:11:18;;;;;;;18.82;10.90;;;;;;;3.77;99.08;101102.53;1731812;81;21134;-78
2021/10/06 04:13:45;;;;;;;21.73;11.73;;;;;;;3.75;99.09;101104.66;1729030;81;21099;-77
2021/10/06 04:16:11;;;;;;;20.85;11.80;;;;;;;3.73;99.16;101113.56;1673374;83;21059;-76
2021/10/06 04:18:37;;;;;;;24.85;11.85;;;;;;;3.72;99.40;101105.65;1713727;81;21475;-77
2021/10/06 04:21:04;;;;;;;25.75;11.57;;;;;;;3.71;99.62;101104.00;1729158;82;20985;-77
2021/10/06 04:23:31;;;;;;;18.32;10.68;;;;;;;3.71;99.79;101110.25;1768868;80;21466;-77
2021/10/06 04:25:57;;;;;;;23.40;11.35;;;;;;;3.72;99.98;101100.22;1744570;80;21509;-78
2021/10/06 04:28:24;;;;;;;23.15;11.33;;;;;;;3.73;100.00;101108.13;1702763;82;21495;-77
2021/10/06 04:30:50;;;;;;;21.50;11.53;;;;;;;3.74;100.00;101107.08;1749152;80;21115;-77
2021/10/06 04:33:17;;;;;;;21.25;11.45;;;;;;;3.76;100.00;101100.88;1756542;80;20896;-75
2021/10/06 04:35:43;;;;;;;20.12;11.65;;;;;;;3.78;100.00;101104.19;1732561;81;20900;-75
2021/10/06 04:38:09;;;;;;;25.12;11.90;;;;;;;3.79;100.00;101104.48;1748263;80;21515;-75
2021/10/06 04:40:36;;;;;;;21.60;11.05;;;;;;;3.82;100.00;101115.42;1743187;80;20944;-81
2021/10/06 04:43:11;;;;;;;23.65;12.30;;;;;;;3.82;100.00;101108.09;1734358;81;21121;-74
2021/10/06 04:45:38;;;;;;;18.92;11.08;;;;;;;3.85;100.00;101112.23;1724189;82;21078;-70
2021/10/06 04:48:05;;;;;;;22.32;11.63;;;;;;;3.89;100.00;101111.54;1722206;81;21571;-81
2021/10/06 04:50:32;;;;;;;23.38;11.60;;;;;;;3.93;100.00;101113.25;1729505;80;21062;-78
2021/10/06 04:52:59;;;;;;;21.40;10.58;;;;;;;3.96;100.00;101109.55;1721405;81;22180;-76
2021/10/06 04:55:26;;;;;;;25.57;11.95;;;;;;;4.02;100.00;101115.93;1746400;80;21040;-78
2021/10/06 04:57:54;;;;;;;22.60;11.33;;;;;;;4.08;100.00;101119.57;1732232;80;20948;-78
2021/10/06 05:00:21;;;;;;;23.22;12.53;;;;;;;4.13;100.00;101123.77;1738654;80;21175;-78
2021/10/06 05:02:49;;;;;;;22.27;11.88;;;;;;;4.18;100.00;101122.53;1743536;81;21188;-79
2021/10/06 05:05:15;;;;;;;24.37;11.85;;;;;;;4.24;100.00;101121.06;1731839;80;20998;-74
2021/10/06 05:07:41;;;;;;;21.62;10.82;;;;;;;4.36;100.00;101131.95;1723429;81;21021;-78
2021/10/06 05:10:08;;;;;;;23.70;13.13;;;;;;;4.36;100.00;101131.95;1729881;82;21475;-75
2021/10/06 05:12:35;;;;;;;22.02;11.78;;;;;;;4.44;100.00;101134.31;1730040;81;21015;-80
2021/10/06 05:15:02;;;;;;;29.02;12.25;;;;;;;4.56;100.00;101135.14;1736016;82;22156;-76
2021/10/06 05:17:28;;;;;;;26.20;12.73;;;;;;;4.56;100.00;101135.14;1729636;81;20916;-75
2021/10/06 05:19:55;;;;;;;21.85;11.40;;;;;;;4.62;100.00;101138.23;1735156;82;20996;-71
2021/10/06 05:22:21;;;;;;;27.15;12.47;;;;;;;4.75;100.00;101139.06;1736754;82;21026;-74
2021/10/06 05:24:48;;;;;;;22.15;11.95;;;;;;;4.82;100.00;101138.39;1727041;81;20895;-79
2021/10/06 05:27:14;;;;;;;21.05;12.45;;;;;;;4.89;100.00;101139.92;1728063;81;22149;-79
2021/10/06 05:29:41;;;;;;;21.45;11.97;;;;;;;4.96;100.00;101140.62;1719223;81;21543;-74
2021/10/06 05:32:08;;;;;;;20.10;11.53;;;;;;;5.06;100.00;101144.63;1699504;81;21073;-72
2021/10/06 05:34:35;;;;;;;21.93;11.30;;;;;;;5.21;100.00;101147.63;1715951;81;21071;-72
2021/10/06 05:37:05;;;;;;;23.52;12.85;;;;;;;5.21;100.00;101147.63;1693479;83;21526;-69
2021/10/06 05:39:37;;;;;;;22.53;12.50;;;;;;;5.29;100.00;101145.89;1690640;83;21209;-71
2021/10/06 05:42:10;;;;;;;20.97;12.78;;;;;;;5.39;100.00;101151.55;1706777;83;21123;-72
2021/10/06 05:44:46;;;;;;;19.85;12.05;;;;;;;5.48;100.00;101146.00;1700800;82;21638;-73
2021/10/06 05:47:13;;;;;;;21.02;11.38;;;;;;;5.57;100.00;101140.46;1692763;83;20914;-73
2021/10/06 05:49:46;;;;;;;22.70;11.43;;;;;;;5.86;100.00;101133.05;1697990;83;21589;-76
2021/10/06 05:52:19;;;;;;;25.88;11.15;;;;;;;5.86;100.00;101133.05;1694397;83;20886;-75
2021/10/06 05:54:45;;;;;;;22.13;11.50;;;;;;;5.98;100.00;101135.74;1728301;80;20976;-74
2021/10/06 05:57:14;;;;;;;20.75;11.80;;;;;;;6.10;100.00;101136.50;1738855;81;21511;-75
2021/10/06 05:59:40;;;;;;;22.35;11.25;;;;;;;6.22;99.70;101133.69;1743798;80;21038;-76
2021/10/06 06:02:13;;;;;;;19.10;11.25;;;;;;;6.29;99.60;101131.09;1739094;80;21562;-74
2021/10/06 06:04:39;;;;;;;18.67;10.63;;;;;;;6.46;99.55;101133.77;1731261;81;21179;-75
2021/10/06 06:07:12;;;;;;;15.38;10.23;;;;;;;6.60;98.88;101137.80;1728708;81;21632;-71
2021/10/06 06:09:42;;;;;;;18.07;10.13;;;;;;;6.78;98.14;101139.42;1715678;82;20985;-76
2021/10/06 06:12:09;;;;;;;18.12;10.40;;;;;;;6.95;97.87;101139.35;1728655;81;21506;-76
2021/10/06 06:14:45;;;;;;;22.98;11.33;;;;;;;7.12;97.15;101142.85;1711399;81;21018;-74
2021/10/06 06:17:15;;;;;;;22.55;10.63;;;;;;;7.28;95.88;101141.96;1733801;80;21135;-74
2021/10/06 06:19:45;;;;;;;18.73;10.93;;;;;;;7.46;94.40;101142.71;1703047;80;20989;-73
2021/10/06 06:22:18;;;;;;;16.80;9.68;;;;;;;7.61;93.67;101137.38;1725176;81;21033;-74
2021/10/06 06:24:52;;;;;;;19.82;10.63;;;;;;;7.76;92.74;101133.98;1730539;81;21025;-73
2021/10/06 06:27:18;;;;;;;19.73;10.13;;;;;;;7.93;91.24;101133.33;1729853;80;20976;-74
2021/10/06 06:29:45;;;;;;;20.30;10.38;;;;;;;8.09;90.08;101128.79;1743342;80;21037;-78
2021/10/06 06:32:14;;;;;;;21.95;10.00;;;;;;;8.23;89.51;101129.45;1736439;80;21319;-75
2021/10/06 06:34:46;;;;;;;20.55;10.25;;;;;;;8.39;88.25;101129.61;1711707;82;21524;-74
2021/10/06 06:37:19;;;;;;;19.25;9.18;;;;;;;8.53;85.75;101129.44;1738326;80;21099;-72
2021/10/06 06:39:52;;;;;;;22.82;9.65;;;;;;;8.67;86.79;101134.70;1742935;80;20942;-76
2021/10/06 06:42:22;;;;;;;20.50;9.48;;;;;;;8.83;85.41;101131.51;1751900;80;21901;-77
2021/10/06 06:44:50;;;;;;;14.78;8.60;;;;;;;9.00;83.47;101129.41;1764549;80;21027;-77
2021/10/06 06:47:22;;;;;;;15.98;9.33;;;;;;;9.24;80.98;101135.27;1765472;80;21520;-75
2021/10/06 06:49:52;;;;;;;20.32;9.15;;;;;;;9.62;80.33;101131.25;1756308;80;21551;-74
2021/10/06 06:52:22;;;;;;;17.77;7.80;;;;;;;10.12;78.85;101126.90;1731295;80;20932;-77
2021/10/06 06:54:55;;;;;;;13.10;7.72;;;;;;;10.56;73.88;101117.53;1732102;81;20976;-74
2021/10/06 06:57:28;;;;;;;16.05;8.23;;;;;;;10.93;74.41;101125.41;1726598;82;20986;-71
2021/10/06 06:59:54;;;;;;;16.27;8.78;;;;;;;11.29;71.50;101126.08;1722245;81;21133;-74
2021/10/06 07:02:24;;;;;;;16.48;8.35;;;;;;;11.61;69.37;101123.41;1741989;81;21101;-74
2021/10/06 07:04:53;;;;;;;16.55;7.80;;;;;;;11.79;68.52;101117.27;1699883;83;21539;-82
2021/10/06 07:07:23;;;;;;;11.22;7.20;;;;;;;12.00;66.59;101122.08;1751166;82;21136;-74
2021/10/06 07:09:54;;;;;;;12.47;6.55;;;;;;;12.11;66.58;101120.34;1726040;81;21020;-69
2021/10/06 07:12:21;;;;;;;11.15;7.03;;;;;;;12.22;64.09;101121.87;1736854;82;22175;-72
2021/10/06 07:14:53;;;;;;;18.55;7.00;;;;;;;12.27;64.01;101121.55;1693227;81;21153;-74
2021/10/06 07:17:21;;;;;;;15.85;8.20;;;;;;;12.30;64.03;101117.67;1704060;82;21080;-73
2021/10/06 07:19:48;;;;;;;9.38;6.15;;;;;;;12.35;63.21;101125.06;1735213;82;21026;-74
2021/10/06 07:22:19;;;;;;;14.30;7.47;;;;;;;12.45;62.10;101127.17;1733740;82;20999;-73
2021/10/06 07:24:51;;;;;;;10.28;6.25;;;;;;;12.56;61.85;101128.72;1718187;81;21005;-74
2021/10/06 07:27:19;;;;;;;11.12;6.67;;;;;;;12.68;60.55;101128.33;1704106;82;21497;-79
2021/10/06 07:29:50;;;;;;;11.97;6.47;;;;;;;12.78;59.98;101127.38;1721641;81;21537;-82
2021/10/06 07:32:24;;;;;;;16.20;6.90;;;;;;;12.95;59.46;101122.22;1729500;81;21154;-75
2021/10/06 07:34:53;;;;;;;22.37;8.65;;;;;;;13.09;59.49;101127.30;1732834;81;21547;-83
2021/10/06 07:37:21;;;;;;;10.32;6.28;;;;;;;13.32;59.39;101126.19;1734126;82;20982;-81
2021/10/06 07:39:48;;;;;;;15.63;7.20;;;;;;;13.52;57.26;101128.68;1720390;81;21115;-84
2021/10/06 07:42:15;;;;;;;16.32;7.12;;;;;;;13.58;56.59;101126.67;1721730;81;21168;-73
2021/10/06 07:44:43;;;;;;;16.90;6.12;;;;;;;13.71;56.30;101130.08;1734472;81;21166;-69
2021/10/06 07:47:12;;;;;;;23.22;7.17;;;;;;;13.88;55.23;101132.55;1734217;82;21045;-71
2021/10/06 07:49:40;;;;;;;15.80;6.42;;;;;;;14.05;55.35;101129.80;1730993;82;21005;-72
2021/10/06 07:52:07;;;;;;;12.40;5.25;;;;;;;14.20;52.71;101122.66;1732343;82;21017;-74
2021/10/06 07:54:35;;;;;;;23.92;8.23;;;;;;;14.30;53.54;101122.48;1699558;82;21068;-71
2021/10/06 07:57:02;;;;;;;8.90;5.12;;;;;;;14.48;50.91;101124.38;1731108;81;21845;-70
2021/10/06 07:59:28;;;;;;;13.40;6.87;;;;;;;14.53;50.63;101124.85;1729297;82;20981;-71
2021/10/06 08:01:56;;;;;;;27.62;6.75;;;;;;;14.46;49.76;101123.05;1719334;82;21117;-73
2021/10/06 08:04:24;;;;;;;16.30;5.58;;;;;;;14.52;50.81;101120.45;1733431;81;21123;-76
2021/10/06 08:06:51;;;;;;;9.80;5.47;;;;;;;14.63;49.21;101112.80;1735473;82;21591;-72
2021/10/06 08:09:18;;;;;;;10.68;5.45;;;;;;;14.63;49.25;101122.47;1735430;81;21043;-72
2021/10/06 08:11:44;;;;;;;8.90;5.08;;;;;;;14.59;47.98;101120.05;1730354;82;21488;-78
2021/10/06 08:14:11;;;;;;;8.40;4.83;;;;;;;14.53;47.60;101124.29;1729155;81;21020;-69
2021/10/06 08:16:38;;;;;;;9.50;4.95;;;;;;;14.58;47.79;101125.32;1715478;81;21103;-72
2021/10/06 08:19:07;;;;;;;8.50;5.17;;;;;;;14.75;48.04;101114.50;1725655;81;21016;-70
2021/10/06 08:21:35;;;;;;;6.83;5.22;;;;;;;15.03;48.67;101113.36;1733595;82;21160;-73
2021/10/06 08:24:04;;;;;;;7.55;5.20;;;;;;;15.37;47.18;101112.11;1737420;81;21032;-83
2021/10/06 08:26:31;;;;;;;6.85;4.80;;;;;;;15.52;45.25;101113.16;1721850;80;21000;-77
2021/10/06 08:28:57;;;;;;;8.70;4.58;;;;;;;15.60;45.68;101110.25;1745589;80;21716;-82
2021/10/06 08:31:24;;;;;;;8.45;4.95;;;;;;;15.75;45.70;101119.00;1702750;81;21213;-76
2021/10/06 08:33:50;;;;;;;18.48;5.50;;;;;;;15.98;45.51;101119.03;1731759;81;23253;-78
2021/10/06 08:36:17;;;;;;;12.00;4.87;;;;;;;16.08;44.27;101109.91;1735497;81;21624;-69
2021/10/06 08:38:43;;;;;;;6.17;4.33;;;;;;;16.08;43.31;101111.86;1734198;81;21006;-79
2021/10/06 08:41:10;;;;;;;13.55;5.37;;;;;;;16.02;42.69;101111.73;1732137;81;21147;-75
2021/10/06 08:43:38;;;;;;;21.25;7.10;;;;;;;15.85;42.56;101116.56;1724181;81;20922;-76
2021/10/06 08:46:04;;;;;;;17.80;7.15;;;;;;;15.79;43.02;101109.51;1739521;81;21546;-76
2021/10/06 09:08:25;;;;;;;13.40;4.17;;;;;;;16.39;40.27;101100.80;1797522;79;22846;-74
2021/10/06 09:10:53;;;;;;;11.03;4.25;;;;;;;16.34;38.35;101102.31;1757304;80;21019;-79
2021/10/06 09:13:26;;;;;;;6.87;4.40;;;;;;;16.29;37.97;101096.34;1757706;81;21536;-73
2021/10/06 09:15:53;;;;;;;7.35;4.60;;;;;;;16.14;39.58;101096.19;1757383;81;21043;-76
2021/10/06 09:18:25;;;;;;;13.98;4.62;;;;;;;16.14;39.97;101095.37;1757174;81;21031;-83
2021/10/06 09:20:51;;;;;;;8.00;4.30;;;;;;;16.30;40.07;101095.20;1757944;81;21486;-78
2021/10/06 09:23:21;;;;;;;10.13;4.15;;;;;;;16.45;38.71;101092.03;1757597;81;20968;-82
2021/10/06 09:25:58;;;;;;;14.23;3.62;;;;;;;16.58;39.29;101088.92;1757874;81;21112;-81
2021/10/06 09:28:36;;;;;;;9.58;4.25;;;;;;;16.63;36.84;101097.67;1746466;81;20979;-79
2021/10/06 09:31:12;;;;;;;7.12;3.20;;;;;;;16.63;37.30;101086.02;1727658;83;21014;-78
2021/10/06 09:33:43;;;;;;;7.97;3.47;;;;;;;16.64;35.96;101087.68;1727587;83;21027;-78
2021/10/06 09:36:18;;;;;;;6.30;3.65;;;;;;;16.71;37.22;101085.84;1728672;83;21007;-81
2021/10/06 09:39:00;;;;;;;13.98;4.37;;;;;;;16.87;37.11;101088.41;1727140;81;21085;-80
2021/10/06 09:41:43;;;;;;;5.60;3.35;;;;;;;17.13;38.11;101088.49;1727827;82;21030;-78
2021/10/06 09:44:23;;;;;;;5.97;3.12;;;;;;;17.45;35.05;101088.05;1727291;82;21554;-79
2021/10/06 09:47:02;;;;;;;7.67;3.37;;;;;;;17.58;33.09;101077.13;1751532;81;21031;-79
2021/10/06 09:49:37;;;;;;;7.00;2.92;;;;;;;17.40;33.24;101081.27;1754422;81;21009;-78
2021/10/06 09:52:23;;;;;;;7.80;3.17;;;;;;;17.21;32.00;101102.14;1755815;80;22189;-81
2021/10/06 09:55:05;;;;;;;8.38;2.33;;;;;;;17.21;33.01;101092.44;1762070;81;21466;-80
2021/10/06 09:57:40;;;;;;;7.30;3.30;;;;;;;17.38;33.72;101096.03;1718423;82;20978;-81
2021/10/06 10:00:13;;;;;;;4.15;2.80;;;;;;;17.65;33.35;101090.80;1712246;82;21078;-78
2021/10/06 10:02:41;;;;;;;6.87;2.25;;;;;;;17.74;32.07;101094.97;1720234;83;21606;-79
2021/10/06 10:05:08;;;;;;;4.50;2.70;;;;;;;17.34;32.80;101097.83;1720738;83;21489;-79
2021/10/06 10:07:35;;;;;;;8.40;2.72;;;;;;;17.08;30.82;101099.74;1690361;83;21105;-79
2021/10/06 10:10:02;;;;;;;10.25;3.22;;;;;;;16.80;31.00;101100.53;1679632;85;20900;-79
2021/10/06 10:12:29;;;;;;;6.50;3.02;;;;;;;16.32;33.25;101093.50;1688424;83;21592;-77
2021/10/06 10:14:56;;;;;;;5.62;2.83;;;;;;;16.10;35.03;101104.05;1688364;85;20963;-78
2021/10/06 10:17:23;;;;;;;8.90;2.85;;;;;;;16.30;34.46;101086.89;1688574;85;21549;-77
2021/10/06 10:19:59;;;;;;;6.60;2.98;;;;;;;16.54;34.18;101081.56;1687727;85;21570;-79
2021/10/06 10:22:30;;;;;;;3.33;2.92;;;;;;;16.39;33.65;101082.78;1664058;86;20970;-79
2021/10/06 10:24:56;;;;;;;5.25;2.98;;;;;;;16.03;33.40;101091.21;1676585;84;20974;-79
2021/10/06 10:27:24;;;;;;;5.20;2.77;;;;;;;15.78;34.74;101086.54;1668153;84;21010;-78
2021/10/06 10:30:03;;;;;;;3.77;2.98;;;;;;;15.56;34.46;101091.22;1664379;86;21188;-79
2021/10/06 10:32:27;;;;;;;7.92;3.42;;;;;;;15.36;35.61;101086.39;1664542;86;21025;-78
2021/10/06 10:35:14;;;;;;;7.50;3.15;;;;;;;15.11;34.78;101083.60;1664114;86;20990;-79
2021/10/06 10:37:53;;;;;;;7.05;3.08;;;;;;;15.04;35.15;101076.28;1677909;83;21090;-81
2021/10/06 10:40:37;;;;;;;8.45;3.12;;;;;;;14.98;36.14;101081.69;1676838;84;21013;-81
2021/10/06 10:43:22;;;;;;;3.67;2.67;;;;;;;15.03;37.54;101084.33;1661435;86;21765;-88
2021/10/06 10:46:07;;;;;;;6.37;2.65;;;;;;;15.44;35.96;101078.73;1620341;88;21616;-85
2021/10/06 10:49:01;;;;;;;7.97;3.67;;;;;;;15.87;36.41;101081.07;1656369;86;21019;-85
2021/10/06 10:51:49;;;;;;;6.62;3.12;;;;;;;15.99;33.57;101080.51;1664608;86;21006;-85
2021/10/06 10:54:43;;;;;;;9.73;3.70;;;;;;;15.69;33.88;101087.59;1660955;86;21025;-87
2021/10/06 10:57:29;;;;;;;5.95;3.75;;;;;;;15.39;36.16;101082.19;1664379;85;22194;-87
2021/10/06 10:59:57;;;;;;;10.15;3.83;;;;;;;15.10;36.22;101086.67;1664742;86;21434;-87
2021/10/06 11:02:32;;;;;;;8.78;3.77;;;;;;;14.99;37.04;101079.75;1664503;86;21045;-81
2021/10/06 11:05:05;;;;;;;14.10;3.52;;;;;;;15.25;37.04;101085.53;1668260;84;22328;-85
2021/10/06 11:07:32;;;;;;;5.70;3.65;;;;;;;15.64;37.17;101078.84;1690651;84;20860;-85
2021/10/06 11:10:07;;;;;;;15.95;3.77;;;;;;;16.30;35.07;101073.60;1679125;83;21520;-85
2021/10/06 11:12:34;;;;;;;4.50;3.27;;;;;;;16.68;34.81;101069.84;1660522;85;21070;-84
2021/10/06 11:15:18;;;;;;;7.28;3.83;;;;;;;16.90;33.91;101072.51;1693007;84;20971;-83
2021/10/06 11:18:13;;;;;;;8.95;3.90;;;;;;;17.09;34.88;101079.18;1701831;83;21624;-86
2021/10/06 11:20:53;;;;;;;7.87;4.12;;;;;;;16.97;34.18;101081.18;1709481;83;21046;-82
2021/10/06 11:23:40;;;;;;;6.53;4.10;;;;;;;16.39;35.23;101078.63;1709409;84;22248;-77
2021/10/06 11:26:30;;;;;;;5.90;3.62;;;;;;;16.01;36.07;101079.62;1719089;83;21000;-76
2021/10/06 11:29:02;;;;;;;5.45;3.40;;;;;;;15.70;35.71;101077.59;1699772;83;21530;-78
2021/10/06 11:31:34;;;;;;;4.70;2.83;;;;;;;15.44;36.69;101064.08;1721752;83;20865;-76
2021/10/06 11:34:21;;;;;;;4.40;3.00;;;;;;;15.13;35.87;101081.34;1655181;85;20928;-78
2021/10/06 11:36:52;;;;;;;6.47;2.77;;;;;;;14.76;37.01;101077.44;1694074;83;21572;-76
2021/10/06 11:39:23;;;;;;;6.85;2.75;;;;;;;14.53;35.94;101080.08;1671493;85;21042;-76
2021/10/06 11:41:51;;;;;;;8.60;2.92;;;;;;;14.43;36.23;101078.91;1707755;82;21091;-75
2021/10/06 11:44:35;;;;;;;;;;;;;;;14.48;37.45;101071.88;1673083;83;20964;-78
2021/10/06 11:47:12;;;;;;;4.60;2.70;;;;;;;14.54;37.55;101068.46;1682101;83;20453;-79
2021/10/06 11:49:46;;;;;;;3.20;2.70;;;;;;;14.57;37.48;101073.38;1703947;82;21813;-77